Time;durP1;ratioP1;P1;durP2;ratioP2;P2;SDS_P1;SDS_P2;PMS_P1;PMS_P2;Temp;Humidity;BMP_temperature;BMP_pressure;BME280_temperature;BME280_humidity;BME280_pressure;Samples;Min_cycle;Max_cycle;Signal;HPM_P1;HPM_P2
2023/03/21 00:01:40;;;;;;;2.78;1.50;;;;;;;8.68;71.26;100789.94;5031272;28;20033;-85
2023/03/21 00:04:05;;;;;;;2.65;1.40;;;;;;;8.69;71.34;100791.59;5037562;28;20030;-84
2023/03/21 00:06:31;;;;;;;3.53;1.55;;;;;;;8.72;71.34;100786.03;5038437;28;20044;-84
2023/03/21 00:08:56;;;;;;;3.25;1.77;;;;;;;8.74;71.61;100794.66;5028975;28;20048;-84
2023/03/21 00:11:21;;;;;;;2.33;1.40;;;;;;;8.76;71.71;100786.63;5024318;28;20041;-84
2023/03/21 00:13:48;;;;;;;2.17;1.50;;;;;;;8.75;71.58;100783.16;5038324;28;20438;-84
2023/03/21 00:16:16;;;;;;;2.78;1.67;;;;;;;8.77;71.53;100772.47;5019478;28;20425;-84
2023/03/21 00:18:47;;;;;;;3.13;1.77;;;;;;;8.79;71.54;100778.44;5019142;28;20062;-85
2023/03/21 00:21:15;;;;;;;2.60;1.50;;;;;;;8.81;71.41;100771.22;5019293;28;20689;-84
2023/03/21 00:23:42;;;;;;;3.22;1.70;;;;;;;8.79;71.94;100768.72;5025193;28;20049;-84
2023/03/21 00:26:08;;;;;;;2.33;1.40;;;;;;;8.81;72.02;100766.78;5034491;28;20044;-85
2023/03/21 00:28:38;;;;;;;3.70;1.70;;;;;;;8.81;71.70;100765.97;5020033;28;20102;-84
2023/03/21 00:31:04;;;;;;;3.30;1.83;;;;;;;8.80;71.83;100759.84;5015557;28;20511;-85
2023/03/21 00:33:30;;;;;;;3.20;1.70;;;;;;;8.83;72.20;100764.03;5016380;28;20045;-85
2023/03/21 00:35:56;;;;;;;2.75;1.77;;;;;;;8.82;72.08;100757.94;5014731;28;20033;-84
2023/03/21 00:38:23;;;;;;;2.83;1.60;;;;;;;8.82;72.39;100759.69;5035689;28;20033;-84
2023/03/21 00:40:48;;;;;;;2.35;1.50;;;;;;;8.83;72.18;100756.13;5020460;28;20041;-84
2023/03/21 00:43:18;;;;;;;2.67;1.63;;;;;;;8.82;72.46;100757.06;5014050;28;20045;-84
2023/03/21 00:45:45;;;;;;;2.40;1.40;;;;;;;8.78;73.62;100747.78;5024537;28;20060;-84
2023/03/21 00:48:11;;;;;;;3.83;1.90;;;;;;;8.74;73.75;100747.19;5030523;28;20033;-84
2023/03/21 00:50:41;;;;;;;3.10;1.90;;;;;;;8.71;74.18;100743.03;5032672;28;20037;-84
2023/03/21 00:53:06;;;;;;;3.03;2.28;;;;;;;8.66;75.16;100749.69;5048285;28;20039;-84
2023/03/21 00:55:32;;;;;;;3.72;2.10;;;;;;;8.64;73.87;100739.25;5019698;28;20069;-84
2023/03/21 00:57:58;;;;;;;2.85;1.83;;;;;;;8.65;73.67;100746.22;5039575;28;20033;-85
2023/03/21 01:00:26;;;;;;;3.17;1.70;;;;;;;8.71;73.14;100743.03;5015586;28;20123;-85
2023/03/21 01:02:57;;;;;;;2.40;1.52;;;;;;;8.73;73.32;100735.00;5021995;28;20143;-84
2023/03/21 01:06:02;;;;;;;;;;;;;;;8.75;73.77;100740.13;5007381;28;20041;-85
2023/03/21 01:08:11;;;;;;;2.17;1.30;;;;;;;8.76;73.55;100733.91;5031735;28;20008;-84
2023/03/21 01:10:43;;;;;;;2.42;1.30;;;;;;;8.77;73.67;100735.56;5016286;28;20090;-85
2023/03/21 01:13:14;;;;;;;2.63;1.40;;;;;;;8.75;73.57;100734.84;5031934;28;20045;-85
2023/03/21 01:15:48;;;;;;;;;;;;;;;8.70;74.58;100728.19;5015839;28;20033;-84
2023/03/21 01:18:15;;;;;;;2.63;1.67;;;;;;;8.67;74.46;100723.16;5028287;28;19921;-84
2023/03/21 01:20:42;;;;;;;2.47;1.63;;;;;;;8.66;73.89;100725.97;5031939;28;20559;-84
2023/03/21 01:23:09;;;;;;;3.05;1.35;;;;;;;8.67;73.76;100733.72;5033328;28;20037;-84
2023/03/21 01:25:35;;;;;;;2.72;1.40;;;;;;;8.67;73.62;100725.81;5015888;28;20041;-85
2023/03/21 01:28:00;;;;;;;2.53;1.30;;;;;;;8.67;73.42;100717.91;5011617;28;20048;-85
2023/03/21 01:30:26;;;;;;;3.08;1.40;;;;;;;8.69;73.32;100721.25;5025593;28;20049;-84
2023/03/21 01:32:53;;;;;;;2.42;1.48;;;;;;;8.70;73.84;100717.66;5020023;28;20041;-85
2023/03/21 01:35:19;;;;;;;2.47;1.45;;;;;;;8.67;74.15;100717.06;5035809;28;20407;-84
2023/03/21 01:37:45;;;;;;;2.50;1.63;;;;;;;8.67;73.80;100717.06;5013421;28;20038;-85
2023/03/21 01:40:16;;;;;;;2.50;1.40;;;;;;;8.67;73.79;100717.06;5019427;28;20048;-84
2023/03/21 01:42:41;;;;;;;;;;;;;;;8.65;74.58;100716.38;5038235;28;20043;-84
2023/03/21 01:45:45;;;;;;;2.40;1.50;;;;;;;8.62;74.66;100711.38;5019462;28;19984;-85
2023/03/21 01:48:12;;;;;;;2.55;1.70;;;;;;;8.56;74.41;100707.47;5030914;28;20053;-85
2023/03/21 01:50:40;;;;;;;3.50;1.60;;;;;;;8.55;74.00;100707.59;5018441;28;20058;-84
2023/03/21 01:53:06;;;;;;;3.00;1.80;;;;;;;8.55;73.65;100708.44;5015167;28;20038;-84
2023/03/21 01:55:33;;;;;;;2.85;1.90;;;;;;;8.57;74.10;100711.78;5041303;28;20049;-84
2023/03/21 01:58:02;;;;;;;2.72;1.92;;;;;;;8.57;74.37;100710.94;5021937;28;20067;-85
2023/03/21 02:01:05;;;;;;;3.17;1.80;;;;;;;8.57;76.40;100705.69;5049359;23;20053;-85
2023/03/21 02:04:57;;;;;;;4.18;2.03;;;;;;;8.50;75.76;100703.56;5023802;28;20037;-84
2023/03/21 02:07:34;;;;;;;;;;;;;;;;;;;;;
2023/03/21 02:10:25;;;;;;;3.25;2.10;;;;;;;8.49;76.03;100701.91;4990713;28;20307;-85
2023/03/21 02:13:29;;;;;;;3.72;1.85;;;;;;;8.47;75.35;100697.75;4993724;28;20050;-85
2023/03/21 02:23:47;;;;;;;;;;;;;;;;;;;;;
2023/03/21 02:26:39;;;;;;;3.13;1.60;;;;;;;8.44;75.39;100677.75;5041681;28;20175;-85
2023/03/21 02:33:30;;;;;;;3.30;1.65;;;;;;;8.50;75.55;100673.75;5051364;28;20071;-84
2023/03/21 02:36:37;;;;;;;3.70;1.98;;;;;;;8.48;76.17;100665.97;4986574;28;20129;-85
2023/03/21 02:39:56;;;;;;;2.85;1.83;;;;;;;8.49;75.70;100672.09;4984545;28;20050;-85
2023/03/21 02:43:01;;;;;;;3.00;1.90;;;;;;;8.47;77.14;100674.84;4983091;28;20041;-85
2023/03/21 02:46:39;;;;;;;;;;;;;;;;;;;;;
2023/03/21 02:49:46;;;;;;;2.58;1.70;;;;;;;8.45;76.18;100668.06;5008109;28;20543;-85
2023/03/21 02:52:40;;;;;;;4.03;1.80;;;;;;;8.46;76.21;100664.44;5044278;28;20068;-85
2023/03/21 02:55:38;;;;;;;2.33;1.45;;;;;;;8.46;76.71;100670.56;5040428;28;20635;-85
2023/03/21 02:58:44;;;;;;;2.03;1.40;;;;;;;8.48;76.44;100673.03;4998620;28;20057;-85
2023/03/21 03:08:27;;;;;;;4.47;2.30;;;;;;;8.41;76.20;100670.09;4954496;28;20221;-84
2023/03/21 03:11:23;;;;;;;2.65;1.92;;;;;;;8.40;76.40;100670.25;5042501;28;20067;-85
2023/03/21 03:21:35;;;;;;;2.83;1.83;;;;;;;8.17;76.65;100659.03;5053116;28;20045;-84
2023/03/21 03:24:36;;;;;;;3.55;1.90;;;;;;;8.08;77.00;100658.88;5009114;28;20124;-84
2023/03/21 03:28:09;;;;;;;3.13;1.90;;;;;;;7.97;77.34;100663.41;5040560;28;20112;-84
2023/03/21 03:31:14;;;;;;;3.35;2.15;;;;;;;7.91;77.14;100656.84;4951604;28;20101;-85
2023/03/21 03:36:50;;;;;;;2.70;1.80;;;;;;;7.88;77.51;100659.75;4973472;28;20057;-85
2023/03/21 03:40:04;;;;;;;3.65;1.95;;;;;;;7.88;77.40;100652.69;4983859;28;20040;-85
2023/03/21 03:43:19;;;;;;;2.80;1.85;;;;;;;7.90;77.60;100649.94;5021814;28;20480;-85
2023/03/21 03:46:09;;;;;;;2.58;1.75;;;;;;;7.88;77.92;100654.50;5071203;28;20051;-84
2023/03/21 03:49:18;;;;;;;3.33;1.92;;;;;;;7.83;81.31;100654.03;5055335;28;20056;-85
2023/03/21 03:52:20;;;;;;;3.92;2.50;;;;;;;7.80;78.80;100657.78;5034979;28;20048;-85
2023/03/21 03:54:53;;;;;;;5.72;2.67;;;;;;;7.81;78.76;100656.81;5052361;28;20043;-85
2023/03/21 03:57:40;;;;;;;3.58;2.35;;;;;;;7.83;78.67;100662.78;5032852;28;20455;-84
2023/03/21 04:00:52;;;;;;;3.58;1.85;;;;;;;7.87;78.58;100663.38;5041493;28;20063;-84
2023/03/21 04:04:26;;;;;;;2.53;1.80;;;;;;;7.92;78.25;100658.53;5056720;28;20048;-85
2023/03/21 04:07:24;;;;;;;2.63;1.88;;;;;;;7.93;78.36;100654.91;5058093;28;20048;-84
2023/03/21 04:10:13;;;;;;;3.28;1.98;;;;;;;7.97;78.25;100655.50;5053126;28;20045;-85
2023/03/21 04:16:30;;;;;;;3.53;2.17;;;;;;;8.01;77.71;100652.47;5075008;28;20036;-84
2023/03/21 04:19:05;;;;;;;4.55;2.42;;;;;;;8.04;77.99;100651.38;5073628;28;20080;-85
2023/03/21 04:21:55;;;;;;;4.93;2.30;;;;;;;8.05;77.61;100648.59;5072398;28;20196;-85
2023/03/21 04:27:38;;;;;;;5.28;2.22;;;;;;;8.02;78.20;100643.59;5062587;28;20532;-85
2023/03/21 04:30:33;;;;;;;3.25;2.20;;;;;;;7.98;78.26;100642.19;5044069;28;20063;-84
2023/03/21 04:33:24;;;;;;;4.00;2.40;;;;;;;7.92;78.42;100648.00;5027002;28;20501;-85
2023/03/21 04:36:32;;;;;;;3.78;2.25;;;;;;;7.92;78.28;100637.47;5035932;28;20133;-85
2023/03/21 04:39:10;;;;;;;;;;;;;;;;;;;;;
2023/03/21 04:42:09;;;;;;;2.90;1.80;;;;;;;7.94;78.31;100638.19;5060601;28;20130;-85
2023/03/21 04:44:39;;;;;;;3.50;1.60;;;;;;;7.93;78.06;100644.38;5012999;28;20056;-84
2023/03/21 04:47:45;;;;;;;;;;;;;;;;;;;;;
2023/03/21 04:50:22;;;;;;;3.05;1.77;;;;;;;7.91;78.90;100642.84;5060505;28;20103;-84
2023/03/21 04:52:59;;;;;;;2.95;1.60;;;;;;;7.87;78.63;100644.94;5041518;28;20083;-84
2023/03/21 04:56:06;;;;;;;;;;;;;;;;;;;;;
2023/03/21 04:58:33;;;;;;;2.90;1.65;;;;;;;7.73;78.74;100643.47;5059838;28;20466;-83
2023/03/21 05:01:01;;;;;;;2.78;1.67;;;;;;;7.69;78.70;100638.59;5058022;28;20040;-84
2023/03/21 05:03:28;;;;;;;2.88;1.80;;;;;;;7.65;78.68;100640.63;5056394;28;20033;-85
2023/03/21 05:05:53;;;;;;;2.83;1.92;;;;;;;7.60;78.77;100634.94;5069955;28;20059;-84
2023/03/21 05:08:19;;;;;;;3.05;1.80;;;;;;;7.57;79.18;100638.66;5056402;28;20521;-83
2023/03/21 05:10:45;;;;;;;2.75;1.75;;;;;;;7.57;79.18;100632.56;5054018;28;20039;-84
2023/03/21 05:13:10;;;;;;;3.28;1.58;;;;;;;7.58;79.29;100636.84;5061299;28;20044;-84
2023/03/21 05:15:35;;;;;;;3.25;1.70;;;;;;;7.55;79.28;100639.75;5059800;28;20025;-85
2023/03/21 05:18:10;;;;;;;3.47;1.70;;;;;;;7.54;78.97;100638.09;5047931;28;20029;-85
2023/03/21 05:20:36;;;;;;;2.83;1.63;;;;;;;7.56;79.29;100639.63;5056080;28;20033;-85
2023/03/21 05:23:02;;;;;;;4.35;1.90;;;;;;;7.58;79.30;100639.50;5067271;28;20040;-85
2023/03/21 05:25:36;;;;;;;7.07;2.50;;;;;;;7.61;79.12;100639.25;5059644;28;20085;-85
2023/03/21 05:28:05;;;;;;;3.35;2.47;;;;;;;7.61;79.38;100634.81;5047133;28;20519;-84
2023/03/21 05:30:31;;;;;;;2.55;2.00;;;;;;;7.62;79.38;100631.22;5059075;28;20037;-85
2023/03/21 05:32:56;;;;;;;4.15;2.33;;;;;;;7.64;79.32;100628.47;5057539;28;20040;-83
2023/03/21 05:35:22;;;;;;;3.80;2.13;;;;;;;7.66;79.17;100635.25;5039746;28;20048;-85
2023/03/21 05:37:47;;;;;;;4.70;2.75;;;;;;;7.69;79.36;100631.53;5084510;28;20029;-84
2023/03/21 05:40:13;;;;;;;5.05;2.50;;;;;;;7.67;79.42;100620.28;5076565;28;20048;-84
2023/03/21 05:42:40;;;;;;;3.83;2.25;;;;;;;7.67;79.27;100625.56;5063998;28;20028;-84
2023/03/21 05:45:06;;;;;;;5.05;2.63;;;;;;;7.68;78.99;100624.59;5053907;28;20090;-85
2023/03/21 05:47:32;;;;;;;4.00;2.45;;;;;;;7.69;79.11;100615.75;5053058;28;20097;-86
2023/03/21 05:49:57;;;;;;;5.97;2.78;;;;;;;7.72;79.23;100623.34;5057725;28;20041;-85
2023/03/21 05:52:22;;;;;;;4.43;2.83;;;;;;;7.74;79.32;100620.59;5078082;28;20437;-85
2023/03/21 05:54:48;;;;;;;5.22;2.88;;;;;;;7.77;79.03;100622.97;5071180;28;20040;-84
2023/03/21 05:57:13;;;;;;;6.45;3.38;;;;;;;7.81;78.97;100625.22;5071041;28;20033;-86
2023/03/21 05:59:39;;;;;;;7.20;3.17;;;;;;;7.82;78.70;100618.16;5066891;23;20083;-85
2023/03/21 06:02:04;;;;;;;5.13;3.13;;;;;;;7.83;78.81;100622.47;5031599;28;20063;-85
2023/03/21 06:04:30;;;;;;;3.83;2.60;;;;;;;7.84;78.49;100624.13;5015519;28;20036;-84
2023/03/21 06:06:55;;;;;;;4.13;2.63;;;;;;;7.80;79.03;100626.19;5033656;28;20049;-85
2023/03/21 06:09:21;;;;;;;5.05;2.80;;;;;;;7.77;79.24;100631.72;5021713;28;20067;-86
2023/03/21 06:11:49;;;;;;;4.13;2.47;;;;;;;7.75;79.25;100632.81;5009492;28;20045;-85
2023/03/21 06:14:15;;;;;;;4.20;2.40;;;;;;;7.76;79.22;100632.66;5018776;28;20038;-85
2023/03/21 06:16:41;;;;;;;3.47;2.20;;;;;;;7.81;79.18;100633.09;5018283;28;20639;-84
2023/03/21 06:19:06;;;;;;;3.97;2.10;;;;;;;8.02;79.83;100637.50;5023628;28;20033;-84
2023/03/21 06:21:31;;;;;;;5.82;3.45;;;;;;;8.58;80.02;100634.38;5023684;28;20034;-85
2023/03/21 06:23:57;;;;;;;5.47;3.78;;;;;;;9.27;79.31;100638.72;5019243;28;20034;-85
2023/03/21 06:26:22;;;;;;;5.60;3.50;;;;;;;9.88;78.38;100636.63;5023540;28;20037;-85
2023/03/21 06:28:49;;;;;;;5.95;3.25;;;;;;;10.55;77.22;100637.28;5017210;28;20037;-85
2023/03/21 06:31:15;;;;;;;5.50;3.40;;;;;;;11.03;76.52;100633.47;5008899;28;20033;-85
2023/03/21 06:33:40;;;;;;;5.85;4.00;;;;;;;11.45;74.34;100638.94;5023986;28;20053;-85
2023/03/21 06:36:06;;;;;;;6.47;3.85;;;;;;;11.68;73.00;100641.06;5022618;28;20025;-84
2023/03/21 06:38:32;;;;;;;6.45;3.80;;;;;;;12.15;72.44;100639.84;5016247;28;20052;-85
2023/03/21 06:40:57;;;;;;;7.13;3.80;;;;;;;12.62;71.32;100642.00;5045291;28;20037;-85
2023/03/21 06:43:23;;;;;;;5.32;3.60;;;;;;;13.19;69.73;100652.69;5015239;28;20057;-84
2023/03/21 06:45:48;;;;;;;5.15;3.45;;;;;;;13.72;67.99;100651.34;5022167;28;20044;-85
2023/03/21 06:48:13;;;;;;;6.68;4.20;;;;;;;13.98;66.36;100651.09;5013762;28;20034;-85
2023/03/21 06:50:39;;;;;;;5.85;4.32;;;;;;;13.83;63.34;100652.00;5024569;28;20068;-85
2023/03/21 06:53:05;;;;;;;6.10;3.97;;;;;;;13.52;64.25;100650.88;5023380;28;20025;-85
2023/03/21 06:55:30;;;;;;;6.82;4.10;;;;;;;13.26;60.87;100653.69;5037921;28;20482;-86
2023/03/21 06:57:56;;;;;;;6.35;4.15;;;;;;;13.01;63.10;100647.53;5028996;28;20093;-85
2023/03/21 07:00:23;;;;;;;5.75;3.90;;;;;;;12.83;63.73;100645.03;5013386;28;20041;-85
2023/03/21 07:02:48;;;;;;;5.60;3.80;;;;;;;12.81;64.16;100643.53;5022895;28;20517;-85
2023/03/21 07:05:15;;;;;;;9.48;5.20;;;;;;;12.74;62.21;100649.47;5020427;28;20076;-85
2023/03/21 07:07:40;;;;;;;5.78;4.13;;;;;;;12.63;62.78;100643.66;5009849;28;20133;-85
2023/03/21 07:10:07;;;;;;;5.45;4.35;;;;;;;12.66;62.63;100651.31;5018467;28;20064;-86
2023/03/21 07:12:34;;;;;;;6.97;4.50;;;;;;;12.70;62.25;100652.63;5007371;28;20038;-85
2023/03/21 07:15:03;;;;;;;8.88;4.90;;;;;;;12.70;61.54;100650.81;5021443;28;20055;-85
2023/03/21 07:17:29;;;;;;;7.95;5.22;;;;;;;12.69;61.24;100645.66;5002334;28;20133;-84
2023/03/21 07:19:54;;;;;;;7.63;5.20;;;;;;;12.67;60.91;100650.31;5016583;28;20048;-85
2023/03/21 07:22:22;;;;;;;8.90;6.00;;;;;;;12.78;60.67;100639.38;5003432;28;20034;-85
2023/03/21 07:24:47;;;;;;;9.07;4.82;;;;;;;12.80;60.02;100641.84;5004896;28;20046;-85
2023/03/21 07:27:17;;;;;;;9.55;5.93;;;;;;;13.04;60.16;100647.22;5019707;28;20107;-85
2023/03/21 07:29:43;;;;;;;7.18;4.93;;;;;;;13.35;60.85;100643.94;5011096;28;20116;-85
2023/03/21 07:32:09;;;;;;;6.97;4.47;;;;;;;14.12;59.85;100641.59;5019958;28;20053;-86
2023/03/21 07:34:34;;;;;;;8.43;5.00;;;;;;;14.72;58.53;100642.00;5016630;28;20400;-86
2023/03/21 07:37:00;;;;;;;6.40;4.95;;;;;;;15.04;57.09;100638.25;5013835;28;20049;-85
2023/03/21 07:39:26;;;;;;;6.93;4.63;;;;;;;15.50;55.24;100640.88;5030431;28;20038;-85
2023/03/21 07:41:54;;;;;;;7.20;4.50;;;;;;;15.84;54.09;100635.06;5021595;28;20033;-86
2023/03/21 07:44:20;;;;;;;7.78;4.35;;;;;;;15.94;51.81;100632.13;5011465;28;20065;-85
2023/03/21 07:46:45;;;;;;;7.57;4.45;;;;;;;15.79;53.27;100632.13;5020985;28;20042;-83
2023/03/21 07:49:10;;;;;;;7.67;5.30;;;;;;;15.71;53.31;100634.88;5013409;28;20046;-86
2023/03/21 07:51:36;;;;;;;6.82;4.28;;;;;;;15.78;53.72;100637.63;5023815;28;20782;-85
2023/03/21 07:54:01;;;;;;;6.78;4.55;;;;;;;15.82;53.12;100642.41;5032334;28;20038;-85
2023/03/21 07:56:27;;;;;;;6.15;4.70;;;;;;;15.67;52.55;100634.38;5035895;28;20037;-85
2023/03/21 07:58:53;;;;;;;6.15;4.68;;;;;;;15.49;52.82;100636.53;5007861;28;20034;-85
2023/03/21 08:01:20;;;;;;;6.18;4.57;;;;;;;15.46;53.60;100644.91;5010306;28;20133;-85
2023/03/21 08:03:46;;;;;;;6.43;4.63;;;;;;;15.34;51.89;100644.53;5019606;28;20362;-84
2023/03/21 08:06:12;;;;;;;5.45;4.28;;;;;;;15.13;52.48;100645.19;5033995;28;20040;-86
2023/03/21 08:08:38;;;;;;;7.00;4.45;;;;;;;14.88;53.09;100647.22;5036649;28;20457;-84
2023/03/21 08:11:04;;;;;;;6.10;4.32;;;;;;;14.79;53.68;100648.28;5015805;28;20065;-85
2023/03/21 08:13:29;;;;;;;7.80;5.15;;;;;;;14.78;52.90;100650.13;5017718;28;20030;-85
2023/03/21 08:15:54;;;;;;;8.88;4.85;;;;;;;15.00;54.08;100653.78;5020637;28;20040;-85
2023/03/21 08:18:20;;;;;;;5.53;4.43;;;;;;;15.48;53.36;100657.03;5002260;28;20458;-85
2023/03/21 08:20:50;;;;;;;7.57;4.88;;;;;;;15.74;52.31;100653.19;5016737;28;20022;-84
2023/03/21 08:23:15;;;;;;;6.72;4.20;;;;;;;15.98;52.15;100641.41;5047733;28;20034;-85
2023/03/21 08:25:41;;;;;;;6.97;4.38;;;;;;;16.09;50.56;100637.47;5012472;28;20043;-85
2023/03/21 08:28:06;;;;;;;6.03;4.32;;;;;;;16.28;51.48;100644.91;5036465;28;20093;-85
2023/03/21 08:30:31;;;;;;;5.20;4.00;;;;;;;16.61;51.01;100636.41;5007317;28;20034;-85
2023/03/21 08:32:58;;;;;;;6.93;4.30;;;;;;;17.04;49.46;100641.84;5014518;28;20037;-84
2023/03/21 08:35:25;;;;;;;7.43;4.00;;;;;;;17.17;47.21;100641.94;5013895;28;20279;-85
2023/03/21 08:37:50;;;;;;;5.70;3.55;;;;;;;17.37;48.94;100641.28;5019923;28;20053;-86
2023/03/21 08:40:17;;;;;;;6.60;4.15;;;;;;;17.34;47.56;100637.16;5008639;28;20660;-86
2023/03/21 08:42:45;;;;;;;7.43;3.97;;;;;;;16.90;48.17;100630.22;5011654;28;20545;-85
2023/03/21 08:45:11;;;;;;;6.55;3.90;;;;;;;16.90;48.73;100635.53;5036881;28;20041;-85
2023/03/21 08:47:37;;;;;;;7.22;3.80;;;;;;;16.90;49.04;100640.03;5028613;28;20037;-85
2023/03/21 08:50:08;;;;;;;5.30;3.45;;;;;;;16.65;47.78;100634.22;5015436;28;20063;-85
2023/03/21 08:52:34;;;;;;;4.28;3.33;;;;;;;16.38;48.93;100639.25;5004066;28;20047;-85
2023/03/21 08:55:01;;;;;;;6.32;4.10;;;;;;;16.23;48.60;100638.44;5011708;28;20034;-85
2023/03/21 08:57:26;;;;;;;6.07;3.42;;;;;;;15.85;48.84;100642.06;5014393;28;20038;-86
2023/03/21 08:59:51;;;;;;;5.85;3.80;;;;;;;15.75;49.52;100635.34;5000668;28;20165;-85
2023/03/21 09:02:17;;;;;;;6.40;3.70;;;;;;;15.66;49.78;100638.06;5025676;28;20038;-85
2023/03/21 09:04:43;;;;;;;6.13;3.55;;;;;;;15.61;49.92;100631.59;4992765;28;20040;-86
2023/03/21 09:07:13;;;;;;;6.00;3.38;;;;;;;15.61;50.09;100636.94;5014512;28;20038;-86
2023/03/21 09:09:38;;;;;;;5.53;3.42;;;;;;;15.64;50.49;100633.94;5035127;28;20076;-86
2023/03/21 09:12:04;;;;;;;6.88;3.30;;;;;;;15.84;50.68;100629.72;5011204;28;20034;-87
2023/03/21 09:14:29;;;;;;;6.47;3.55;;;;;;;15.99;49.69;100636.91;5004167;28;20037;-86
2023/03/21 09:16:55;;;;;;;5.90;2.92;;;;;;;15.98;48.78;100637.91;5020499;28;20063;-86
2023/03/21 09:19:20;;;;;;;4.30;3.10;;;;;;;16.07;48.83;100637.63;5027767;28;20034;-85
2023/03/21 09:21:47;;;;;;;5.60;3.28;;;;;;;16.15;49.23;100636.72;5019560;28;20159;-86
2023/03/21 09:24:14;;;;;;;5.90;3.40;;;;;;;16.38;49.07;100625.91;5028472;28;20584;-85
2023/03/21 09:26:40;;;;;;;4.60;2.72;;;;;;;16.76;49.44;100633.72;5010960;28;20034;-86
2023/03/21 09:29:06;;;;;;;4.93;3.30;;;;;;;17.15;48.22;100633.28;5019224;28;20037;-86
2023/03/21 09:31:31;;;;;;;6.13;3.53;;;;;;;17.09;46.17;100626.06;5035577;28;20037;-86
2023/03/21 09:33:57;;;;;;;5.28;3.20;;;;;;;16.96;47.56;100623.25;5028779;28;20034;-86
2023/03/21 09:36:26;;;;;;;5.25;3.55;;;;;;;16.86;47.55;100634.25;5012169;28;20029;-86
2023/03/21 09:38:56;;;;;;;5.57;3.60;;;;;;;16.67;47.94;100635.69;5029894;28;20515;-85
2023/03/21 09:41:34;;;;;;;7.93;3.80;;;;;;;16.69;47.82;100633.66;5009215;28;20042;-85
2023/03/21 09:44:21;;;;;;;5.85;3.92;;;;;;;16.41;48.06;100638.88;5028673;28;20049;-86
2023/03/21 09:47:08;;;;;;;6.03;3.70;;;;;;;16.31;48.77;100633.00;5036250;28;20119;-86
2023/03/21 09:49:39;;;;;;;5.10;3.53;;;;;;;16.29;49.04;100630.53;5010060;28;20037;-85
2023/03/21 09:52:15;;;;;;;6.17;3.27;;;;;;;16.44;49.36;100632.34;5029161;28;20511;-86
2023/03/21 09:54:43;;;;;;;4.07;3.10;;;;;;;16.66;49.25;100639.38;5025376;28;20034;-85
2023/03/21 09:57:42;;;;;;;6.20;3.75;;;;;;;16.70;48.13;100639.81;5016658;28;20025;-85
2023/03/21 10:00:19;;;;;;;7.00;3.88;;;;;;;16.48;47.79;100636.28;5019676;28;20116;-86
2023/03/21 10:02:50;;;;;;;6.30;4.07;;;;;;;16.39;48.28;100632.06;5025366;28;20034;-85
2023/03/21 10:05:20;;;;;;;;;;;;;;;16.42;48.67;100634.34;5019020;28;20049;-86
2023/03/21 10:08:07;;;;;;;6.55;4.03;;;;;;;16.57;48.50;100635.16;5022668;28;20365;-86
2023/03/21 10:10:52;;;;;;;6.28;4.45;;;;;;;16.51;48.31;100636.72;5016877;28;20057;-85
2023/03/21 10:13:26;;;;;;;6.68;4.00;;;;;;;16.53;48.16;100641.88;5002159;28;20038;-86
2023/03/21 10:16:13;;;;;;;9.65;4.53;;;;;;;16.51;47.64;100636.72;5003499;28;20046;-85
2023/03/21 10:18:41;;;;;;;6.97;4.03;;;;;;;16.43;47.99;100631.50;5031218;28;20555;-85
2023/03/21 10:21:07;;;;;;;8.68;4.40;;;;;;;16.43;48.06;100636.03;5014310;28;20045;-85
2023/03/21 10:23:32;;;;;;;6.15;4.00;;;;;;;16.55;48.40;100631.84;5003347;28;20036;-85
2023/03/21 10:26:04;;;;;;;7.03;4.97;;;;;;;16.41;47.70;100633.53;5021402;28;20126;-85
2023/03/21 10:28:40;;;;;;;7.55;4.20;;;;;;;16.48;48.24;100630.94;5021935;28;20316;-85
2023/03/21 10:31:08;;;;;;;6.07;4.18;;;;;;;16.70;48.28;100626.47;5019944;28;20065;-85
2023/03/21 10:33:41;;;;;;;6.65;4.00;;;;;;;16.77;47.64;100620.16;5022616;28;20061;-85
2023/03/21 10:36:11;;;;;;;7.18;4.03;;;;;;;16.72;47.18;100619.09;5010409;28;20072;-86
2023/03/21 10:38:42;;;;;;;7.55;4.30;;;;;;;16.62;47.54;100619.41;5015302;28;20051;-85
2023/03/21 10:41:10;;;;;;;6.50;3.70;;;;;;;16.38;46.57;100611.75;5014835;28;20186;-85
2023/03/21 10:43:37;;;;;;;5.43;3.50;;;;;;;16.20;47.40;100606.81;5013835;28;20126;-85
2023/03/21 10:46:12;;;;;;;5.18;3.75;;;;;;;16.24;48.00;100603.56;5027950;28;20065;-86
2023/03/21 10:48:40;;;;;;;7.53;3.97;;;;;;;16.34;48.19;100608.63;5039036;28;20045;-86
2023/03/21 10:51:08;;;;;;;6.13;3.78;;;;;;;16.34;48.23;100596.09;5017849;28;20039;-85
2023/03/21 10:53:46;;;;;;;6.47;3.38;;;;;;;16.38;47.81;100595.75;5018148;28;20060;-85
2023/03/21 10:56:12;;;;;;;4.47;2.90;;;;;;;16.45;48.29;100599.31;5005030;28;20655;-85
2023/03/21 10:58:43;;;;;;;4.38;3.00;;;;;;;16.33;47.17;100606.97;5021075;28;20403;-86
2023/03/21 11:01:13;;;;;;;5.38;3.28;;;;;;;16.25;48.09;100593.72;5035203;28;20068;-85
2023/03/21 11:03:43;;;;;;;4.53;2.97;;;;;;;16.18;48.56;100596.31;5034126;28;20030;-86
2023/03/21 11:06:11;;;;;;;5.68;3.30;;;;;;;16.00;48.82;100601.22;5017082;28;20049;-86
2023/03/21 11:08:46;;;;;;;4.22;3.50;;;;;;;15.83;49.36;100592.59;5015010;28;20034;-86
2023/03/21 11:11:18;;;;;;;;;;;;;;;15.65;50.42;100604.41;5021458;28;20103;-85
2023/03/21 11:13:44;;;;;;;;;;;;;;;15.46;50.89;100602.28;5035399;28;19940;-84
2023/03/21 11:16:10;;;;;;;;;;;;;;;15.32;50.61;100600.41;5038547;28;19913;-86
2023/03/21 11:18:41;;;;;;;;;;;;;;;15.15;50.80;100595.22;5018590;28;19921;-85
2023/03/21 11:21:08;;;;;;;;;;;;;;;15.10;51.53;100597.59;5039750;28;19985;-85
2023/03/21 11:23:34;;;;;;;;;;;;;;;15.07;51.10;100592.66;5018551;28;19913;-85
2023/03/21 11:26:01;;;;;;;;;;;;;;;15.23;51.81;100591.66;5024785;28;19925;-84
2023/03/21 11:28:32;;;;;;;;;;;;;;;15.48;51.31;100590.41;5005929;28;19967;-85
2023/03/21 11:30:59;;;;;;;;;;;;;;;15.46;51.05;100583.63;5012051;28;19980;-87
2023/03/21 11:33:33;;;;;;;;;;;;;;;15.20;51.93;100584.03;5015506;28;19924;-85
2023/03/21 11:35:58;;;;;;;;;;;;;;;15.15;51.42;100581.91;5040981;28;19916;-85
2023/03/21 11:38:25;;;;;;;;;;;;;;;15.24;51.52;100577.34;5012871;28;20287;-84
2023/03/21 11:40:53;;;;;;;;;;;;;;;15.32;51.55;100579.91;5016841;28;19952;-85
2023/03/21 11:43:18;;;;;;;;;;;;;;;15.32;50.93;100573.78;5012090;28;19951;-83
2023/03/21 11:46:02;;;;;;;;;;;;;;;15.37;50.62;100572.22;5016313;28;19913;-85
2023/03/21 11:48:27;;;;;;;;;;;;;;;15.42;51.16;100572.50;5024617;28;20062;-85
2023/03/21 11:51:04;;;;;;;;;;;;;;;15.17;51.08;100568.44;5022623;28;19953;-85
2023/03/21 11:53:40;;;;;;;;;;;;;;;15.00;51.35;100567.75;5038423;28;19948;-84
2023/03/21 11:56:26;;;;;;;;;;;;;;;15.16;52.10;100564.94;5009830;28;19936;-85
2023/03/21 11:59:09;;;;;;;;;;;;;;;15.23;51.38;100555.22;5035820;28;19925;-84
2023/03/21 12:01:56;;;;;;;;;;;;;;;15.42;51.04;100558.34;5039923;28;19912;-85
2023/03/21 12:04:33;;;;;;;;;;;;;;;15.57;50.48;100553.84;5040313;28;19928;-85
2023/03/21 12:07:10;;;;;;;;;;;;;;;15.50;50.16;100552.94;5028785;28;19917;-85
2023/03/21 12:09:48;;;;;;;;;;;;;;;15.43;50.39;100542.19;5037911;28;19920;-85
2023/03/21 12:12:25;;;;;;;;;;;;;;;15.40;50.07;100536.41;5038340;28;19928;-84
2023/03/21 12:14:56;;;;;;;;;;;;;;;15.29;50.22;100530.50;5023182;28;19921;-85
2023/03/21 12:17:42;;;;;;;;;;;;;;;15.28;50.46;100528.03;5013359;28;19918;-85
2023/03/21 12:20:10;;;;;;;;;;;;;;;15.17;50.62;100526.63;5039786;28;19970;-85
2023/03/21 12:22:56;;;;;;;;;;;;;;;15.29;49.99;100516.34;5012586;28;19913;-86
2023/03/21 12:25:29;;;;;;;;;;;;;;;15.59;50.11;100513.69;5006666;28;19952;-85
2023/03/21 12:28:04;;;;;;;;;;;;;;;15.88;49.58;100516.34;5024046;28;19924;-85
2023/03/21 12:30:29;;;;;;;;;;;;;;;16.14;48.28;100509.69;5013287;28;19921;-86
2023/03/21 12:33:07;;;;;;;;;;;;;;;16.28;47.36;100511.47;5010243;28;20354;-84
2023/03/21 12:35:43;;;;;;;;;;;;;;;16.55;47.98;100514.41;5014091;28;19945;-85
2023/03/21 12:38:15;;;;;;;;;;;;;;;16.57;47.12;100509.69;5011886;28;19951;-85
2023/03/21 12:40:56;;;;;;;;;;;;;;;16.65;47.01;100506.88;5020701;28;19924;-85
2023/03/21 12:43:21;;;;;;;;;;;;;;;16.81;46.43;100505.00;5020427;28;19919;-85
2023/03/21 12:45:49;;;;;;;;;;;;;;;16.85;46.45;100495.56;5036836;28;19999;-85
2023/03/21 12:48:17;;;;;;;;;;;;;;;16.97;45.49;100486.00;5019087;28;20070;-86
2023/03/21 12:50:44;;;;;;;;;;;;;;;16.96;46.09;100487.03;5009017;28;19924;-83
2023/03/21 12:53:28;;;;;;;;;;;;;;;17.00;44.94;100485.63;5037394;28;19913;-84